createdAt,value
2023-09-06T00:02:17.125Z,5.12
2023-09-06T00:04:45.896Z,4.80
2023-09-06T00:07:14.947Z,5.40
2023-09-06T00:09:43.666Z,5.53
2023-09-06T00:12:12.418Z,4.72
2023-09-06T00:14:42.776Z,5.05
2023-09-06T00:17:11.477Z,4.90
2023-09-06T00:19:40.227Z,4.70
2023-09-06T00:22:10.518Z,4.90
2023-09-06T00:24:39.189Z,5.67
2023-09-06T00:27:08.940Z,5.75
2023-09-06T00:29:37.647Z,5.90
2023-09-06T00:32:06.461Z,5.20
2023-09-06T00:34:35.084Z,5.40
2023-09-06T00:37:04.613Z,5.35
2023-09-06T00:39:51.592Z,6.10
2023-09-06T00:42:51.699Z,5.25
2023-09-06T00:45:23.224Z,4.92
2023-09-06T00:47:53.925Z,5.25
2023-09-06T00:50:23.354Z,5.33
2023-09-06T00:52:55.577Z,5.55
2023-09-06T00:55:26.102Z,5.80
2023-09-06T00:57:56.136Z,5.45
2023-09-06T01:00:26.029Z,5.70
2023-09-06T01:02:54.954Z,5.53
2023-09-06T01:05:25.302Z,6.80
2023-09-06T01:07:57.072Z,5.40
2023-09-06T01:10:25.884Z,5.42
2023-09-06T01:12:56.530Z,6.17
2023-09-06T01:15:26.175Z,5.65
2023-09-06T01:17:56.201Z,6.00
2023-09-06T01:20:37.906Z,5.60
2023-09-06T01:23:31.797Z,5.67
2023-09-06T01:26:02.506Z,5.62
2023-09-06T01:28:31.677Z,5.65
2023-09-06T01:31:01.588Z,5.55
2023-09-06T01:33:32.219Z,5.80
2023-09-06T01:36:01.167Z,5.92
2023-09-06T01:38:34.247Z,6.40
2023-09-06T01:41:05.406Z,5.92
2023-09-06T01:43:34.141Z,5.80
2023-09-06T01:46:04.544Z,6.50
2023-09-06T01:48:34.168Z,6.08
2023-09-06T01:51:04.672Z,6.12
2023-09-06T01:53:36.010Z,6.20
2023-09-06T01:56:07.952Z,5.95
2023-09-06T01:58:40.296Z,6.17
2023-09-06T02:01:11.347Z,6.67
2023-09-06T02:03:40.343Z,6.42
2023-09-06T02:06:12.482Z,6.60
2023-09-06T02:08:54.944Z,6.40
2023-09-06T02:14:30.806Z,5.85
2023-09-06T02:20:04.031Z,6.17
2023-09-06T02:22:32.791Z,6.92
2023-09-06T02:25:02.373Z,6.47
2023-09-06T02:27:33.165Z,7.08
2023-09-06T02:30:02.641Z,6.70
2023-09-06T02:32:38.352Z,6.20
2023-09-06T02:35:08.463Z,6.40
2023-09-06T02:37:37.786Z,6.28
2023-09-06T02:40:21.156Z,7.15
2023-09-06T02:42:52.634Z,6.33
2023-09-06T02:45:23.165Z,6.53
2023-09-06T02:47:54.407Z,6.15
2023-09-06T02:50:26.892Z,6.58
2023-09-06T02:52:57.170Z,6.95
2023-09-06T02:55:25.876Z,7.15
2023-09-06T02:57:56.514Z,7.28
2023-09-06T03:03:44.304Z,6.87
2023-09-06T03:06:14.881Z,7.42
2023-09-06T03:08:43.663Z,7.65
2023-09-06T03:11:18.100Z,7.78
2023-09-06T03:13:46.618Z,7.33
2023-09-06T03:16:17.146Z,7.20
2023-09-06T03:18:47.261Z,6.80
2023-09-06T03:21:17.443Z,7.30
2023-09-06T03:23:50.202Z,7.35
2023-09-06T03:26:18.869Z,7.37
2023-09-06T03:28:57.937Z,8.00
2023-09-06T03:31:28.263Z,7.92
2023-09-06T03:33:57.369Z,7.58
2023-09-06T03:36:33.973Z,7.75
2023-09-06T03:39:04.674Z,7.65
2023-09-06T03:41:33.636Z,7.53
2023-09-06T03:44:02.290Z,8.08
2023-09-06T03:46:31.133Z,8.80
2023-09-06T03:49:00.012Z,8.30
2023-09-06T03:51:28.740Z,8.25
2023-09-06T03:53:58.486Z,8.48
2023-09-06T03:56:39.586Z,7.70
2023-09-06T03:59:16.060Z,8.03
2023-09-06T04:01:44.093Z,7.78
2023-09-06T04:04:14.360Z,7.75
2023-09-06T04:06:45.856Z,7.17
2023-09-06T04:09:14.817Z,8.60
2023-09-06T04:11:43.659Z,7.72
2023-09-06T04:14:12.364Z,8.25
2023-09-06T04:16:41.143Z,7.25
2023-09-06T04:19:10.480Z,7.40
2023-09-06T04:21:47.618Z,7.25
2023-09-06T04:24:16.528Z,7.20
2023-09-06T04:26:55.430Z,7.58
2023-09-06T04:29:28.468Z,7.33
2023-09-06T04:31:58.858Z,8.20
2023-09-06T04:34:32.263Z,7.72
2023-09-06T04:37:02.509Z,7.70
2023-09-06T04:39:38.017Z,7.58
2023-09-06T04:42:08.814Z,8.15
2023-09-06T04:44:38.845Z,7.78
2023-09-06T04:47:10.689Z,7.30
2023-09-06T04:49:42.579Z,7.47
2023-09-06T04:52:16.424Z,7.53
2023-09-06T04:54:45.228Z,7.30
2023-09-06T04:57:16.636Z,7.12
2023-09-06T04:59:48.538Z,7.12
2023-09-06T05:02:30.308Z,7.70
2023-09-06T05:05:01.566Z,7.97
2023-09-06T05:07:33.746Z,7.65
2023-09-06T05:10:07.089Z,7.90
2023-09-06T05:12:37.288Z,8.13
2023-09-06T05:15:10.029Z,8.18
2023-09-06T05:17:38.849Z,7.75
2023-09-06T05:20:33.881Z,7.85
2023-09-06T05:23:05.394Z,7.78
2023-09-06T05:25:35.315Z,7.62
2023-09-06T05:28:05.991Z,7.87
2023-09-06T05:30:34.818Z,6.85
2023-09-06T05:33:03.616Z,7.42
2023-09-06T05:35:32.377Z,6.95
2023-09-06T05:38:03.033Z,7.53
2023-09-06T05:40:37.076Z,6.87
2023-09-06T05:43:34.419Z,6.33
2023-09-06T05:46:03.635Z,6.10
2023-09-06T05:48:35.163Z,6.83
2023-09-06T05:51:04.092Z,6.25
2023-09-06T05:53:32.823Z,6.12
2023-09-06T05:56:07.992Z,6.42
2023-09-06T05:58:39.335Z,5.50
2023-09-06T06:01:09.541Z,5.45
2023-09-06T06:03:39.392Z,5.75
2023-09-06T06:06:10.002Z,5.70
2023-09-06T06:08:39.280Z,5.60
2023-09-06T06:11:11.182Z,5.30
2023-09-06T06:13:39.972Z,5.20
2023-09-06T06:16:10.106Z,4.92
2023-09-06T06:18:38.836Z,5.67
2023-09-06T06:21:07.675Z,5.28
2023-09-06T06:23:41.666Z,6.37
2023-09-06T06:26:09.912Z,5.58
2023-09-06T06:28:40.233Z,5.50
2023-09-06T06:31:17.220Z,5.75
2023-09-06T06:37:16.982Z,5.10
2023-09-06T06:39:47.600Z,5.53
2023-09-06T06:42:19.716Z,4.85
2023-09-06T06:44:53.134Z,4.87
2023-09-06T06:57:20.474Z,4.92
2023-09-06T07:09:42.524Z,5.53
2023-09-06T07:12:12.055Z,5.12
2023-09-06T07:14:54.293Z,5.60
2023-09-06T07:17:23.317Z,6.25
2023-09-06T07:19:58.271Z,5.20
2023-09-06T07:22:30.651Z,4.90
2023-09-06T07:24:59.416Z,5.12
2023-09-06T07:27:30.166Z,4.80
2023-09-06T07:30:00.067Z,5.62
2023-09-06T07:39:04.425Z,4.78
2023-09-06T07:41:33.416Z,4.75
2023-09-06T07:44:02.154Z,5.37
2023-09-06T07:46:32.251Z,4.80
2023-09-06T07:49:01.014Z,4.65
2023-09-06T07:51:33.049Z,4.92
2023-09-06T07:54:01.738Z,5.10
2023-09-06T07:56:30.458Z,4.87
2023-09-06T07:58:59.316Z,4.55
2023-09-06T08:02:07.811Z,5.12
2023-09-06T08:04:37.123Z,5.05
2023-09-06T08:07:27.194Z,7.35
2023-09-06T08:10:04.755Z,7.62
2023-09-06T08:12:33.571Z,20.88
2023-09-06T08:15:02.243Z,5.60
2023-09-06T08:17:35.799Z,5.47
2023-09-06T08:20:12.592Z,6.25
2023-09-06T08:22:51.720Z,5.75
2023-09-06T08:25:20.888Z,5.37
2023-09-06T08:28:30.832Z,5.15
2023-09-06T08:37:31.872Z,5.65
2023-09-06T08:40:00.648Z,5.12
2023-09-06T08:42:33.999Z,5.87
2023-09-06T08:45:25.562Z,7.30
2023-09-06T08:47:58.999Z,6.37
2023-09-06T08:50:30.397Z,5.25
2023-09-06T08:53:01.257Z,6.28
2023-09-06T08:55:30.511Z,5.62
2023-09-06T08:58:04.470Z,5.72
2023-09-06T09:00:38.038Z,5.55
2023-09-06T09:03:13.239Z,5.70
2023-09-06T09:05:46.246Z,5.55
2023-09-06T09:08:22.766Z,5.60
2023-09-06T09:10:56.937Z,5.85
2023-09-06T09:13:34.197Z,5.80
2023-09-06T09:16:26.276Z,5.25
2023-09-06T09:18:55.619Z,5.78
2023-09-06T09:21:24.587Z,5.47
2023-09-06T09:23:57.071Z,5.42
2023-09-06T09:26:41.404Z,6.00
2023-09-06T09:32:46.095Z,6.05
2023-09-06T09:35:51.322Z,5.92
2023-09-06T09:38:21.866Z,6.35
2023-09-06T09:41:07.952Z,6.08
2023-09-06T09:43:37.092Z,5.83
2023-09-06T09:49:21.853Z,5.95
2023-09-06T09:54:59.411Z,5.95
2023-09-06T10:01:02.247Z,5.42
2023-09-06T10:03:38.456Z,5.28
2023-09-06T10:06:07.885Z,5.45
2023-09-06T10:09:11.375Z,5.85
2023-09-06T10:11:43.030Z,5.92
2023-09-06T10:14:14.260Z,5.97
2023-09-06T10:19:53.733Z,5.80
2023-09-06T10:22:18.570Z,5.83
2023-09-06T10:24:50.459Z,5.83
2023-09-06T10:27:21.299Z,5.67
2023-09-06T10:30:04.685Z,5.97
2023-09-06T10:32:34.417Z,5.55
2023-09-06T10:35:28.554Z,6.42
2023-09-06T10:38:17.854Z,6.00
2023-09-06T10:40:59.646Z,5.95
2023-09-06T10:43:36.115Z,5.60
2023-09-06T10:46:18.233Z,6.17
2023-09-06T10:49:25.196Z,6.25
2023-09-06T10:51:59.471Z,6.25
2023-09-06T10:54:38.923Z,6.00
2023-09-06T10:57:15.869Z,6.22
2023-09-06T10:59:59.027Z,6.03
2023-09-06T11:02:29.629Z,6.20
2023-09-06T11:05:11.303Z,5.95
2023-09-06T11:07:51.181Z,5.70
2023-09-06T11:16:50.732Z,5.78
2023-09-06T11:19:34.200Z,6.20
2023-09-06T11:22:14.607Z,6.00
2023-09-06T11:24:48.554Z,5.97
2023-09-06T11:27:21.370Z,5.92
2023-09-06T11:30:19.534Z,6.00
2023-09-06T11:32:49.694Z,5.53
2023-09-06T11:35:48.440Z,6.17
2023-09-06T11:38:22.315Z,5.83
2023-09-06T11:40:53.532Z,5.70
2023-09-06T11:43:24.941Z,6.55
2023-09-06T11:46:03.433Z,5.75
2023-09-06T11:48:39.683Z,6.35
2023-09-06T11:51:16.485Z,6.10
2023-09-06T11:57:35.660Z,5.85
2023-09-06T12:00:07.134Z,5.83
2023-09-06T12:02:37.571Z,5.80
2023-09-06T12:05:42.450Z,5.90
2023-09-06T12:08:17.058Z,5.70
2023-09-06T12:11:17.362Z,6.25
2023-09-06T12:14:05.173Z,6.87
2023-09-06T12:17:15.637Z,6.80
2023-09-06T12:20:19.739Z,6.28
2023-09-06T12:22:55.777Z,5.33
2023-09-06T12:25:44.965Z,5.47
2023-09-06T12:28:13.934Z,5.87
2023-09-06T12:34:34.362Z,6.12
2023-09-06T12:37:04.143Z,5.00
2023-09-06T12:39:39.619Z,5.20
2023-09-06T12:42:35.969Z,4.87
2023-09-06T12:47:49.800Z,5.58
2023-09-06T12:50:28.617Z,5.60
2023-09-06T12:52:53.929Z,5.78
2023-09-06T12:55:23.312Z,5.28
2023-09-06T12:57:59.480Z,5.12
2023-09-06T13:00:45.120Z,5.10
2023-09-06T13:03:20.499Z,5.22
2023-09-06T13:06:02.302Z,5.72
2023-09-06T13:08:37.374Z,6.33
2023-09-06T13:11:06.428Z,5.95
2023-09-06T13:13:36.001Z,5.42
2023-09-06T13:19:07.558Z,5.53
2023-09-06T13:21:36.276Z,5.30
2023-09-06T13:24:13.018Z,6.08
2023-09-06T13:26:54.108Z,5.53
2023-09-06T13:29:23.176Z,5.92
2023-09-06T13:31:53.842Z,5.90
2023-09-06T13:34:43.207Z,6.10
2023-09-06T13:37:08.838Z,5.80
2023-09-06T13:39:40.931Z,16.27
2023-09-06T13:42:16.143Z,11.75
2023-09-06T13:44:46.409Z,6.33
2023-09-06T13:47:36.767Z,6.90
2023-09-06T13:50:09.039Z,5.92
2023-09-06T13:52:47.245Z,6.25
2023-09-06T13:58:23.471Z,6.90
2023-09-06T14:00:58.308Z,6.67
2023-09-06T14:03:32.863Z,7.03
2023-09-06T14:06:06.677Z,6.97
2023-09-06T14:08:35.083Z,6.80
2023-09-06T14:11:07.540Z,6.45
2023-09-06T14:13:41.196Z,6.70
2023-09-06T14:16:12.800Z,7.05
2023-09-06T14:19:27.835Z,6.92
2023-09-06T14:22:00.229Z,7.15
2023-09-06T14:24:30.118Z,6.72
2023-09-06T14:26:58.983Z,6.53
2023-09-06T14:29:28.223Z,7.17
2023-09-06T14:31:59.870Z,6.83
2023-09-06T14:34:28.610Z,7.70
2023-09-06T14:36:59.246Z,7.47
2023-09-06T14:39:32.586Z,6.97
2023-09-06T14:42:36.408Z,6.80
2023-09-06T14:44:35.656Z,7.28
2023-09-06T14:47:04.757Z,6.97
2023-09-06T14:49:33.553Z,6.85
2023-09-06T14:52:18.680Z,7.67
2023-09-06T14:54:54.648Z,6.53
2023-09-06T14:57:23.503Z,6.70
2023-09-06T14:59:52.371Z,6.85
2023-09-06T15:02:28.223Z,7.47
2023-09-06T15:04:57.148Z,7.60
2023-09-06T15:07:29.151Z,7.25
2023-09-06T15:10:33.705Z,7.55
2023-09-06T15:13:16.255Z,6.97
2023-09-06T15:15:45.899Z,7.33
2023-09-06T15:18:15.219Z,8.70
2023-09-06T15:20:43.973Z,7.15
2023-09-06T15:23:28.715Z,7.05
2023-09-06T15:25:49.535Z,7.40
2023-09-06T15:28:19.761Z,6.60
2023-09-06T15:30:52.980Z,7.17
2023-09-06T15:33:21.891Z,7.83
2023-09-06T15:35:50.629Z,8.98
2023-09-06T15:38:19.398Z,7.30
2023-09-06T15:41:17.165Z,7.17
2023-09-06T15:47:04.061Z,7.50
2023-09-06T15:52:42.580Z,7.75
2023-09-06T15:55:11.455Z,7.90
2023-09-06T15:57:45.060Z,9.43
2023-09-06T16:01:02.518Z,7.85
2023-09-06T16:03:34.726Z,8.30
2023-09-06T16:06:06.610Z,8.00
2023-09-06T16:08:56.374Z,7.25
2023-09-06T16:11:54.605Z,13.35
2023-09-06T16:14:27.402Z,7.92
2023-09-06T16:16:58.354Z,7.67
2023-09-06T16:19:27.176Z,7.05
2023-09-06T16:21:55.924Z,7.87
2023-09-06T16:24:29.829Z,7.03
2023-09-06T16:26:58.583Z,8.03
2023-09-06T16:29:43.078Z,7.65
2023-09-06T16:32:39.202Z,10.18
2023-09-06T16:35:12.004Z,8.48
2023-09-06T16:38:00.349Z,8.10
2023-09-06T16:40:32.042Z,7.35
2023-09-06T16:44:01.508Z,8.23
2023-09-06T16:53:03.219Z,8.05
2023-09-06T16:58:40.092Z,8.03
2023-09-06T17:01:34.422Z,7.85
2023-09-06T17:04:09.147Z,7.78
2023-09-06T17:09:34.136Z,7.97
2023-09-06T17:12:08.437Z,7.75
2023-09-06T17:14:37.408Z,7.92
2023-09-06T17:17:40.990Z,8.10
2023-09-06T17:23:32.796Z,7.60
2023-09-06T17:26:40.927Z,7.53
2023-09-06T17:29:26.266Z,7.50
2023-09-06T17:32:04.133Z,8.18
2023-09-06T17:34:34.207Z,11.78
2023-09-06T17:37:04.045Z,16.93
2023-09-06T17:39:32.776Z,8.55
2023-09-06T17:42:03.087Z,7.47
2023-09-06T17:44:32.885Z,7.92
2023-09-06T17:47:03.285Z,7.95
2023-09-06T17:49:32.406Z,8.43
2023-09-06T17:52:15.342Z,7.97
2023-09-06T17:57:40.855Z,8.85
2023-09-06T18:00:15.137Z,8.63
2023-09-06T18:02:50.104Z,8.68
2023-09-06T18:05:25.710Z,8.68
2023-09-06T18:07:54.471Z,8.50
2023-09-06T18:10:36.452Z,8.43
2023-09-06T18:13:08.763Z,8.40
2023-09-06T18:15:37.900Z,9.18
2023-09-06T18:18:29.316Z,8.60
2023-09-06T18:21:26.141Z,9.30
2023-09-06T18:24:15.822Z,9.10
2023-09-06T18:26:54.236Z,9.30
2023-09-06T18:30:11.579Z,9.80
2023-09-06T18:33:12.173Z,10.05
2023-09-06T18:36:39.499Z,10.23
2023-09-06T18:39:12.825Z,9.35
2023-09-06T18:41:43.057Z,10.20
2023-09-06T18:44:11.914Z,9.10
2023-09-06T18:46:42.257Z,9.35
2023-09-06T18:49:14.542Z,9.63
2023-09-06T18:51:51.259Z,9.13
2023-09-06T18:54:21.007Z,9.20
2023-09-06T18:56:50.098Z,8.60
2023-09-06T18:59:19.205Z,10.13
2023-09-06T19:01:51.217Z,9.33
2023-09-06T19:04:20.444Z,9.75
2023-09-06T19:06:49.098Z,9.53
2023-09-06T19:09:18.048Z,8.65
2023-09-06T19:11:54.380Z,8.95
2023-09-06T19:14:33.874Z,8.98
2023-09-06T19:17:10.464Z,8.70
2023-09-06T19:19:48.372Z,8.98
2023-09-06T19:23:09.059Z,9.50
2023-09-06T19:26:06.970Z,8.55
2023-09-06T19:28:37.420Z,9.50
2023-09-06T19:31:07.888Z,9.68
2023-09-06T19:33:40.207Z,9.15
2023-09-06T19:36:09.212Z,8.88
2023-09-06T19:38:38.051Z,9.23
2023-09-06T19:41:12.153Z,8.70
2023-09-06T19:43:41.200Z,9.40
2023-09-06T19:46:13.406Z,9.28
2023-09-06T19:49:03.301Z,9.00
2023-09-06T19:51:16.104Z,8.88
2023-09-06T19:53:47.968Z,8.83
2023-09-06T19:56:18.222Z,8.48
2023-09-06T19:59:03.427Z,8.98
2023-09-06T20:01:21.706Z,8.43
2023-09-06T20:03:50.789Z,9.85
2023-09-06T20:06:19.729Z,8.58
2023-09-06T20:08:48.624Z,9.48
2023-09-06T20:11:19.276Z,9.10
2023-09-06T20:13:51.287Z,8.63
2023-09-06T20:16:27.694Z,10.75
2023-09-06T20:19:00.377Z,8.25
2023-09-06T20:21:30.254Z,8.28
2023-09-06T20:23:59.387Z,13.75
2023-09-06T20:26:38.862Z,9.03
2023-09-06T20:43:35.377Z,9.33
2023-09-06T20:46:12.607Z,9.63
2023-09-06T20:48:40.412Z,10.25
2023-09-06T20:51:20.767Z,9.58
2023-09-06T20:53:51.202Z,9.95
2023-09-06T20:56:56.956Z,9.30
2023-09-06T20:59:25.802Z,10.03
2023-09-06T21:02:00.945Z,9.43
2023-09-06T21:04:31.570Z,8.73
2023-09-06T21:07:00.521Z,8.05
2023-09-06T21:09:34.265Z,7.75
2023-09-06T21:18:11.499Z,7.67
2023-09-06T21:20:42.042Z,7.67
2023-09-06T21:23:20.465Z,7.80
2023-09-06T21:25:56.983Z,7.30
2023-09-06T21:28:30.721Z,7.87
2023-09-06T21:31:04.050Z,7.78
2023-09-06T21:33:45.629Z,8.28
2023-09-06T21:36:10.216Z,7.92
2023-09-06T21:38:40.658Z,8.55
2023-09-06T21:41:13.912Z,8.73
2023-09-06T21:43:42.838Z,8.13
2023-09-06T21:46:13.592Z,8.45
2023-09-06T21:52:10.668Z,8.75
2023-09-06T21:57:37.398Z,9.40
2023-09-06T22:00:18.756Z,9.05
2023-09-06T22:02:45.092Z,8.58
2023-09-06T22:05:20.329Z,8.65
2023-09-06T22:07:49.264Z,8.90
2023-09-06T22:10:23.499Z,8.90
2023-09-06T22:12:58.536Z,9.05
2023-09-06T22:15:27.606Z,9.00
2023-09-06T22:18:46.930Z,9.53
2023-09-06T22:21:19.070Z,9.43
2023-09-06T22:23:54.018Z,9.43
2023-09-06T22:26:22.889Z,10.70
2023-09-06T22:28:54.135Z,9.90
2023-09-06T22:31:32.110Z,9.43
2023-09-06T22:34:22.949Z,9.23
2023-09-06T22:36:54.012Z,9.73
2023-09-06T22:39:24.196Z,9.68
2023-09-06T22:41:53.374Z,9.45
2023-09-06T22:50:45.771Z,10.25
2023-09-06T22:53:14.897Z,9.50
2023-09-06T22:55:45.528Z,8.95
2023-09-06T23:01:11.598Z,9.90
2023-09-06T23:03:46.381Z,9.30
2023-09-06T23:06:21.354Z,9.88
2023-09-06T23:08:57.932Z,10.13
2023-09-06T23:11:30.289Z,9.15
2023-09-06T23:14:00.444Z,10.13
2023-09-06T23:16:31.042Z,10.10
2023-09-06T23:18:59.971Z,10.05
2023-09-06T23:21:30.678Z,9.80
2023-09-06T23:24:01.151Z,10.32
2023-09-06T23:26:31.569Z,9.93
2023-09-06T23:29:02.041Z,9.93
2023-09-06T23:31:32.602Z,9.50
2023-09-06T23:34:05.120Z,10.50
2023-09-06T23:36:34.766Z,9.85
2023-09-06T23:39:05.102Z,10.10
2023-09-06T23:41:34.078Z,10.08
2023-09-06T23:44:06.672Z,10.40
2023-09-06T23:46:35.802Z,10.15
2023-09-06T23:49:04.869Z,10.50
2023-09-06T23:51:33.880Z,9.70
2023-09-06T23:54:02.691Z,9.80
2023-09-06T23:56:32.914Z,9.53
2023-09-06T23:59:01.633Z,9.25
